Terminal Aerodrome Forecast
Issued by NWS

Home | Current Version | Previous Version | Text Only | Print | Product List | Glossary Off
Versions: 1 2 3 4 5 6 7 8 9 10 11 12 13 14 15 16 17 18

000
FTUS43 KFGF 242300
TAFBJI
TAF
KBJI 242339Z 2500/2524 16012G20KT P6SM BKN080
     FM250400 15012G20KT P6SM BKN025
     FM251100 22013KT P6SM BKN015
     FM251400 29017G25KT 2SM -SN OVC007
     FM252000 30018G25KT P6SM BKN015=

USA.gov is the U.S. government's official web portal to all federal, state and local government web resources and services.